createdAt,value
2018-06-12T00:00:47.902Z,1011.38
2018-06-12T00:01:47.933Z,1011.37
2018-06-12T00:02:47.957Z,1011.41
2018-06-12T00:03:47.995Z,1011.37
2018-06-12T00:04:48.013Z,1011.40
2018-06-12T00:05:48.038Z,1011.38
2018-06-12T00:06:48.070Z,1011.39
2018-06-12T00:07:48.096Z,1011.39
2018-06-12T00:08:48.120Z,1011.37
2018-06-12T00:09:48.146Z,1011.33
2018-06-12T00:10:48.175Z,1011.36
2018-06-12T00:11:48.201Z,1011.33
2018-06-12T00:12:48.226Z,1011.29
2018-06-12T00:13:48.252Z,1011.34
2018-06-12T00:14:48.275Z,1011.30
2018-06-12T00:15:48.305Z,1011.30
2018-06-12T00:16:48.335Z,1011.28
2018-06-12T00:17:48.359Z,1011.32
2018-06-12T00:18:48.385Z,1011.27
2018-06-12T00:19:48.414Z,1011.27
2018-06-12T00:20:48.445Z,1011.29
2018-06-12T00:21:48.469Z,1011.28
2018-06-12T00:22:48.493Z,1011.30
2018-06-12T00:23:48.515Z,1011.34
2018-06-12T00:24:48.547Z,1011.25
2018-06-12T00:25:48.572Z,1011.31
2018-06-12T00:26:48.601Z,1011.35
2018-06-12T00:27:48.625Z,1011.31
2018-06-12T00:28:48.651Z,1011.32
2018-06-12T00:29:48.681Z,1011.30
2018-06-12T00:30:48.705Z,1011.31
2018-06-12T00:31:48.731Z,1011.29
2018-06-12T00:32:48.755Z,1011.31
2018-06-12T00:33:48.786Z,1011.29
2018-06-12T00:34:48.813Z,1011.23
2018-06-12T00:35:48.835Z,1011.26
2018-06-12T00:36:48.866Z,1011.24
2018-06-12T00:37:48.891Z,1011.27
2018-06-12T00:38:48.920Z,1011.18
2018-06-12T00:39:48.941Z,1011.25
2018-06-12T00:40:48.971Z,1011.20
2018-06-12T00:41:48.995Z,1011.22
2018-06-12T00:42:49.030Z,1011.21
2018-06-12T00:43:49.050Z,1011.24
2018-06-12T00:44:49.076Z,1011.16
2018-06-12T00:45:49.110Z,1011.12
2018-06-12T00:46:49.130Z,1011.06
2018-06-12T00:47:49.156Z,1011.10
2018-06-12T00:48:49.188Z,1011.07
2018-06-12T00:49:49.210Z,1011.04
2018-06-12T00:50:49.237Z,1011.05
2018-06-12T00:51:49.264Z,1011.06
2018-06-12T00:52:49.286Z,1011.04
2018-06-12T00:53:49.317Z,1011.08
2018-06-12T00:54:49.342Z,1011.07
2018-06-12T00:55:49.374Z,1011.07
2018-06-12T00:56:49.395Z,1011.07
2018-06-12T00:57:49.419Z,1011.05
2018-06-12T00:58:49.445Z,1011.05
2018-06-12T00:59:49.469Z,1011.00
2018-06-12T01:00:49.499Z,1011.02
2018-06-12T01:01:49.527Z,1011.05
2018-06-12T01:02:49.548Z,1010.97
2018-06-12T01:03:49.578Z,1010.98
2018-06-12T01:04:49.603Z,1011.00
2018-06-12T01:05:49.628Z,1011.02
2018-06-12T01:06:49.653Z,1011.05
2018-06-12T01:07:49.679Z,1011.03
2018-06-12T01:08:49.709Z,1011.08
2018-06-12T01:09:49.733Z,1011.03
2018-06-12T01:10:49.764Z,1011.03
2018-06-12T01:11:49.801Z,1011.10
2018-06-12T01:12:49.818Z,1011.01
2018-06-12T01:13:49.844Z,1011.07
2018-06-12T01:14:49.871Z,1011.05
2018-06-12T01:15:49.896Z,1011.10
2018-06-12T01:16:49.922Z,1011.05
2018-06-12T01:17:49.949Z,1011.00
2018-06-12T01:18:49.974Z,1011.01
2018-06-12T01:19:50.000Z,1010.94
2018-06-12T01:20:50.031Z,1011.06
2018-06-12T01:21:50.050Z,1011.03
2018-06-12T01:22:50.080Z,1011.01
2018-06-12T01:23:50.113Z,1011.05
2018-06-12T01:24:50.132Z,1011.01
2018-06-12T01:25:50.159Z,1011.00
2018-06-12T01:26:50.188Z,1011.02
2018-06-12T01:27:50.213Z,1011.04
2018-06-12T01:28:50.237Z,1011.06
2018-06-12T01:29:50.265Z,1011.06
2018-06-12T01:30:50.288Z,1011.07
2018-06-12T01:31:50.315Z,1011.05
2018-06-12T01:32:50.340Z,1011.03
2018-06-12T01:33:50.368Z,1011.02
2018-06-12T01:34:50.394Z,1011.02
2018-06-12T01:35:50.419Z,1011.02
2018-06-12T01:36:50.443Z,1011.06
2018-06-12T01:37:50.472Z,1011.00
2018-06-12T01:38:50.497Z,1010.98
2018-06-12T01:39:50.523Z,1010.97
2018-06-12T01:40:50.556Z,1010.95
2018-06-12T01:41:50.579Z,1010.95
2018-06-12T01:42:50.602Z,1010.94
2018-06-12T01:43:50.628Z,1010.96
2018-06-12T01:44:50.659Z,1010.99
2018-06-12T01:45:50.686Z,1010.96
2018-06-12T01:46:50.708Z,1011.00
2018-06-12T01:47:50.742Z,1010.97
2018-06-12T01:48:50.763Z,1011.02
2018-06-12T01:49:50.796Z,1010.97
2018-06-12T01:50:50.817Z,1011.00
2018-06-12T01:51:50.837Z,1011.03
2018-06-12T01:52:50.871Z,1011.04
2018-06-12T01:53:50.897Z,1011.10
2018-06-12T01:54:50.917Z,1011.08
2018-06-12T01:55:50.942Z,1011.06
2018-06-12T01:56:50.973Z,1011.10
2018-06-12T01:57:51.006Z,1011.14
2018-06-12T01:58:51.032Z,1011.10
2018-06-12T01:59:51.051Z,1011.11
2018-06-12T02:00:51.078Z,1011.14
2018-06-12T02:01:51.101Z,1011.10
2018-06-12T02:02:51.133Z,1011.14
2018-06-12T02:03:51.157Z,1011.16
2018-06-12T02:04:51.181Z,1011.14
2018-06-12T02:05:51.207Z,1011.13
2018-06-12T02:06:51.232Z,1011.23
2018-06-12T02:07:51.261Z,1011.19
2018-06-12T02:08:51.291Z,1011.18
2018-06-12T02:09:51.312Z,1011.15
2018-06-12T02:10:51.341Z,1011.15
2018-06-12T02:11:51.367Z,1011.13
2018-06-12T02:12:51.395Z,1011.09
2018-06-12T02:13:51.417Z,1011.11
2018-06-12T02:14:51.443Z,1011.09
2018-06-12T02:15:51.475Z,1011.13
2018-06-12T02:16:51.497Z,1011.09
2018-06-12T02:17:51.526Z,1011.08
2018-06-12T02:18:51.555Z,1011.16
2018-06-12T02:19:51.572Z,1011.09
2018-06-12T02:20:51.604Z,1011.06
2018-06-12T02:21:51.630Z,1011.05
2018-06-12T02:22:51.657Z,1011.05
2018-06-12T02:23:51.682Z,1011.04
2018-06-12T02:24:51.710Z,1011.02
2018-06-12T02:25:51.733Z,1011.06
2018-06-12T02:26:51.757Z,1011.05
2018-06-12T02:27:51.787Z,1011.07
2018-06-12T02:28:51.809Z,1010.99
2018-06-12T02:29:51.835Z,1010.98
2018-06-12T02:30:51.869Z,1010.98
2018-06-12T02:31:51.887Z,1010.97
2018-06-12T02:32:51.917Z,1010.98
2018-06-12T02:33:51.942Z,1011.06
2018-06-12T02:34:51.974Z,1011.04
2018-06-12T02:35:51.998Z,1011.03
2018-06-12T02:36:52.021Z,1011.02
2018-06-12T02:37:52.050Z,1011.03
2018-06-12T02:38:52.073Z,1011.03
2018-06-12T02:39:52.099Z,1010.99
2018-06-12T02:40:52.129Z,1011.07
2018-06-12T02:41:52.150Z,1011.03
2018-06-12T02:42:52.188Z,1011.03
2018-06-12T02:43:52.206Z,1011.03
2018-06-12T02:44:52.230Z,1011.02
2018-06-12T02:45:52.257Z,1010.99
2018-06-12T02:46:52.280Z,1010.99
2018-06-12T02:47:52.305Z,1010.98
2018-06-12T02:48:52.340Z,1010.99
2018-06-12T02:49:52.360Z,1011.00
2018-06-12T02:50:52.385Z,1010.96
2018-06-12T02:51:52.414Z,1010.98
2018-06-12T02:52:52.440Z,1011.01
2018-06-12T02:53:52.461Z,1011.02
2018-06-12T02:54:52.489Z,1011.01
2018-06-12T02:55:52.515Z,1011.05
2018-06-12T02:56:52.540Z,1011.01
2018-06-12T02:57:52.573Z,1011.04
2018-06-12T02:58:52.598Z,1011.02
2018-06-12T02:59:52.620Z,1011.07
2018-06-12T03:00:52.646Z,1011.04
2018-06-12T03:01:52.676Z,1011.03
2018-06-12T03:02:52.698Z,1011.01
2018-06-12T03:03:52.728Z,1010.99
2018-06-12T03:04:52.748Z,1010.93
2018-06-12T03:05:52.778Z,1010.95
2018-06-12T03:06:52.805Z,1010.94
2018-06-12T03:07:52.832Z,1010.93
2018-06-12T03:08:52.854Z,1010.93
2018-06-12T03:09:52.879Z,1010.94
2018-06-12T03:10:52.913Z,1010.97
2018-06-12T03:11:52.938Z,1010.97
2018-06-12T03:12:52.962Z,1011.00
2018-06-12T03:13:52.988Z,1011.03
2018-06-12T03:14:53.013Z,1010.95
2018-06-12T03:15:53.034Z,1011.01
2018-06-12T03:16:53.072Z,1011.01
2018-06-12T03:17:53.096Z,1011.02
2018-06-12T03:18:53.125Z,1011.01
2018-06-12T03:19:53.148Z,1011.02
2018-06-12T03:20:53.162Z,1011.02
2018-06-12T03:21:53.198Z,1010.99
2018-06-12T03:22:53.221Z,1011.00
2018-06-12T03:23:53.247Z,1011.01
2018-06-12T03:24:53.277Z,1010.97
2018-06-12T03:25:53.302Z,1010.98
2018-06-12T03:26:53.327Z,1010.98
2018-06-12T03:27:53.350Z,1010.99
2018-06-12T03:28:53.378Z,1010.94
2018-06-12T03:29:53.403Z,1010.94
2018-06-12T03:30:53.434Z,1010.96
2018-06-12T03:31:53.464Z,1010.97
2018-06-12T03:32:53.483Z,1011.00
2018-06-12T03:33:53.508Z,1010.98
2018-06-12T03:34:53.538Z,1011.02
2018-06-12T03:35:53.556Z,1011.00
2018-06-12T03:36:53.589Z,1011.00
2018-06-12T03:37:53.618Z,1010.96
2018-06-12T03:38:53.641Z,1010.93
2018-06-12T03:39:53.664Z,1010.96
2018-06-12T03:40:53.688Z,1010.98
2018-06-12T03:41:53.717Z,1010.98
2018-06-12T03:42:53.750Z,1011.00
2018-06-12T03:43:53.769Z,1011.01
2018-06-12T03:44:53.794Z,1010.97
2018-06-12T03:45:53.818Z,1010.97
2018-06-12T03:46:53.847Z,1010.96
2018-06-12T03:47:53.877Z,1010.96
2018-06-12T03:48:53.912Z,1011.02
2018-06-12T03:49:53.931Z,1010.98
2018-06-12T03:50:53.956Z,1010.97
2018-06-12T03:51:53.987Z,1011.02
2018-06-12T03:52:54.006Z,1010.98
2018-06-12T03:53:54.028Z,1010.99
2018-06-12T03:54:54.059Z,1011.00
2018-06-12T03:55:54.088Z,1011.01
2018-06-12T03:56:54.112Z,1010.99
2018-06-12T03:57:54.133Z,1011.12
2018-06-12T03:58:54.163Z,1011.07
2018-06-12T03:59:54.187Z,1011.08
2018-06-12T04:00:54.213Z,1011.11
2018-06-12T04:01:54.238Z,1011.07
2018-06-12T04:02:54.265Z,1011.09
2018-06-12T04:03:54.293Z,1011.07
2018-06-12T04:04:54.316Z,1011.05
2018-06-12T04:05:54.342Z,1011.06
2018-06-12T04:06:54.376Z,1011.04
2018-06-12T04:07:54.402Z,1011.08
2018-06-12T04:08:54.424Z,1011.12
2018-06-12T04:09:54.461Z,1011.06
2018-06-12T04:10:54.480Z,1011.07
2018-06-12T04:11:54.506Z,1011.06
2018-06-12T04:12:54.526Z,1011.05
2018-06-12T04:13:54.552Z,1011.08
2018-06-12T04:14:54.632Z,1011.05
2018-06-12T04:15:54.606Z,1011.10
2018-06-12T04:16:54.632Z,1011.10
2018-06-12T04:17:54.657Z,1011.10
2018-06-12T04:18:54.686Z,1011.08
2018-06-12T04:19:54.712Z,1011.09
2018-06-12T04:20:54.748Z,1011.11
2018-06-12T04:21:54.766Z,1011.09
2018-06-12T04:22:54.785Z,1011.14
2018-06-12T04:23:54.813Z,1011.16
2018-06-12T04:24:54.836Z,1011.23
2018-06-12T04:25:54.866Z,1011.23
2018-06-12T04:26:54.899Z,1011.21
2018-06-12T04:27:54.918Z,1011.22
2018-06-12T04:28:54.946Z,1011.30
2018-06-12T04:29:54.970Z,1011.17
2018-06-12T04:30:54.996Z,1011.22
2018-06-12T04:31:55.021Z,1011.24
2018-06-12T04:32:55.055Z,1011.21
2018-06-12T04:33:55.080Z,1011.25
2018-06-12T04:34:55.102Z,1011.22
2018-06-12T04:35:55.154Z,1011.21
2018-06-12T04:36:55.157Z,1011.24
2018-06-12T04:37:55.180Z,1011.21
2018-06-12T04:38:55.211Z,1011.20
2018-06-12T04:39:55.231Z,1011.24
2018-06-12T04:40:55.261Z,1011.25
2018-06-12T04:41:55.285Z,1011.25
2018-06-12T04:42:55.310Z,1011.18
2018-06-12T04:43:55.340Z,1011.14
2018-06-12T04:44:55.363Z,1011.24
2018-06-12T04:45:55.392Z,1011.20
2018-06-12T04:46:55.419Z,1011.17
2018-06-12T04:47:55.491Z,1011.20
2018-06-12T04:48:55.474Z,1011.21
2018-06-12T04:49:55.496Z,1011.22
2018-06-12T04:50:55.528Z,1011.16
2018-06-12T04:51:55.559Z,1011.17
2018-06-12T04:52:55.574Z,1011.14
2018-06-12T04:53:55.604Z,1011.15
2018-06-12T04:54:55.628Z,1011.17
2018-06-12T04:55:55.659Z,1011.16
2018-06-12T04:56:55.676Z,1011.22
2018-06-12T04:57:55.704Z,1011.19
2018-06-12T04:58:55.730Z,1011.20
2018-06-12T04:59:55.758Z,1011.18
2018-06-12T05:00:55.786Z,1011.20
2018-06-12T05:01:55.810Z,1011.22
2018-06-12T05:02:55.838Z,1011.25
2018-06-12T05:03:55.866Z,1011.23
2018-06-12T05:04:55.890Z,1011.29
2018-06-12T05:05:55.919Z,1011.25
2018-06-12T05:06:55.942Z,1011.23
2018-06-12T05:07:55.965Z,1011.20
2018-06-12T05:08:55.994Z,1011.17
2018-06-12T05:09:56.020Z,1011.20
2018-06-12T05:10:56.051Z,1011.21
2018-06-12T05:11:56.076Z,1011.24
2018-06-12T05:12:56.105Z,1011.22
2018-06-12T05:13:56.134Z,1011.25
2018-06-12T05:14:56.157Z,1011.24
2018-06-12T05:15:56.178Z,1011.28
2018-06-12T05:16:56.204Z,1011.28
2018-06-12T05:17:56.234Z,1011.27
2018-06-12T05:18:56.269Z,1011.23
2018-06-12T05:19:56.355Z,1011.22
2018-06-12T05:20:56.314Z,1011.27
2018-06-12T05:21:56.345Z,1011.23
2018-06-12T05:22:56.389Z,1011.26
2018-06-12T05:23:56.398Z,1011.28
2018-06-12T05:24:56.420Z,1011.24
2018-06-12T05:25:56.444Z,1011.27
2018-06-12T05:26:56.472Z,1011.27
2018-06-12T05:27:56.500Z,1011.27
2018-06-12T05:28:56.524Z,1011.28
2018-06-12T05:29:56.559Z,1011.26
2018-06-12T05:30:56.581Z,1011.37
2018-06-12T05:31:56.603Z,1011.41
2018-06-12T05:32:56.635Z,1011.35
2018-06-12T05:33:56.659Z,1011.38
2018-06-12T05:34:56.689Z,1011.36
2018-06-12T05:35:56.714Z,1011.49
2018-06-12T05:36:56.758Z,1011.41
2018-06-12T05:37:56.763Z,1011.39
2018-06-12T05:38:56.797Z,1011.34
2018-06-12T05:39:56.818Z,1011.32
2018-06-12T05:40:56.844Z,1011.30
2018-06-12T05:41:56.868Z,1011.30
2018-06-12T05:42:56.901Z,1011.31
2018-06-12T05:43:56.929Z,1011.34
2018-06-12T05:44:56.955Z,1011.32
2018-06-12T05:45:56.984Z,1011.35
2018-06-12T05:46:57.010Z,1011.33
2018-06-12T05:47:57.034Z,1011.40
2018-06-12T05:48:57.058Z,1011.38
2018-06-12T05:49:57.090Z,1011.37
2018-06-12T05:50:57.115Z,1011.35
2018-06-12T05:51:57.161Z,1011.37
2018-06-12T05:52:57.175Z,1011.41
2018-06-12T05:53:57.197Z,1011.45
2018-06-12T05:54:57.220Z,1011.42
2018-06-12T05:55:57.251Z,1011.38
2018-06-12T05:56:57.276Z,1011.41
2018-06-12T05:57:57.298Z,1011.43
2018-06-12T05:58:57.332Z,1011.40
2018-06-12T05:59:57.355Z,1011.40
2018-06-12T06:00:57.378Z,1011.36
2018-06-12T06:01:57.412Z,1011.31
2018-06-12T06:02:57.434Z,1011.28
2018-06-12T06:03:57.462Z,1011.30
2018-06-12T06:04:57.488Z,1011.34
2018-06-12T06:05:57.514Z,1011.34
2018-06-12T06:06:57.548Z,1011.35
2018-06-12T06:07:57.568Z,1011.41
2018-06-12T06:08:57.598Z,1011.45
2018-06-12T06:09:57.623Z,1011.42
2018-06-12T06:10:57.647Z,1011.46
2018-06-12T06:11:57.678Z,1011.47
2018-06-12T06:12:57.702Z,1011.45
2018-06-12T06:13:57.733Z,1011.47
2018-06-12T06:14:57.766Z,1011.42
2018-06-12T06:15:57.795Z,1011.37
2018-06-12T06:16:57.821Z,1011.44
2018-06-12T06:17:57.841Z,1011.48
2018-06-12T06:18:57.870Z,1011.45
2018-06-12T06:19:57.892Z,1011.47
2018-06-12T06:20:57.927Z,1011.47
2018-06-12T06:21:57.948Z,1011.42
2018-06-12T06:22:57.980Z,1011.42
2018-06-12T06:23:58.013Z,1011.41
2018-06-12T06:24:58.031Z,1011.43
2018-06-12T06:25:58.059Z,1011.40
2018-06-12T06:26:58.085Z,1011.42
2018-06-12T06:27:58.110Z,1011.44
2018-06-12T06:28:58.136Z,1011.47
2018-06-12T06:29:58.166Z,1011.40
2018-06-12T06:30:58.193Z,1011.42
2018-06-12T06:31:58.217Z,1011.48
2018-06-12T06:32:58.244Z,1011.44
2018-06-12T06:33:58.272Z,1011.43
2018-06-12T06:34:58.306Z,1011.49
2018-06-12T06:35:58.330Z,1011.44
2018-06-12T06:36:58.351Z,1011.54
2018-06-12T06:37:58.380Z,1011.47
2018-06-12T06:38:58.409Z,1011.47
2018-06-12T06:39:58.431Z,1011.42
2018-06-12T06:40:58.462Z,1011.47
2018-06-12T06:41:58.490Z,1011.51
2018-06-12T06:42:58.536Z,1011.51
2018-06-12T06:43:58.546Z,1011.53
2018-06-12T06:44:58.570Z,1011.58
2018-06-12T06:45:58.603Z,1011.56
2018-06-12T06:46:58.630Z,1011.58
2018-06-12T06:47:58.660Z,1011.56
2018-06-12T06:48:58.680Z,1011.59
2018-06-12T06:49:58.707Z,1011.57
2018-06-12T06:50:58.760Z,1011.54
2018-06-12T06:51:58.761Z,1011.57
2018-06-12T06:52:58.789Z,1011.49
2018-06-12T06:53:58.815Z,1011.54
2018-06-12T06:54:58.850Z,1011.61
2018-06-12T06:55:58.888Z,1011.50
2018-06-12T06:56:58.951Z,1011.54
2018-06-12T06:57:58.925Z,1011.53
2018-06-12T06:58:58.951Z,1011.49
2018-06-12T06:59:58.982Z,1011.52
2018-06-12T07:00:59.009Z,1011.54
2018-06-12T07:01:59.035Z,1011.63
2018-06-12T07:02:59.061Z,1011.65
2018-06-12T07:03:59.085Z,1011.63
2018-06-12T07:04:59.118Z,1011.63
2018-06-12T07:05:59.149Z,1011.64
2018-06-12T07:06:59.173Z,1011.60
2018-06-12T07:07:59.203Z,1011.62
2018-06-12T07:08:59.276Z,1011.64
2018-06-12T07:09:59.253Z,1011.78
2018-06-12T07:10:59.280Z,1011.71
2018-06-12T07:11:59.304Z,1011.76
2018-06-12T07:12:59.339Z,1011.73
2018-06-12T07:13:59.358Z,1011.73
2018-06-12T07:14:59.443Z,1011.74
2018-06-12T07:15:59.419Z,1011.76
2018-06-12T07:16:59.443Z,1011.69
2018-06-12T07:17:59.475Z,1011.67
2018-06-12T07:18:59.509Z,1011.64
2018-06-12T07:19:59.531Z,1011.60
2018-06-12T07:20:59.549Z,1011.54
2018-06-12T07:21:59.581Z,1011.55
2018-06-12T07:22:59.607Z,1011.62
2018-06-12T07:23:59.629Z,1011.61
2018-06-12T07:24:59.663Z,1011.74
2018-06-12T07:25:59.686Z,1011.76
2018-06-12T07:26:59.713Z,1011.75
2018-06-12T07:27:59.747Z,1011.72
2018-06-12T07:28:59.767Z,1011.74
2018-06-12T07:29:59.798Z,1011.79
2018-06-12T07:30:59.827Z,1011.84
2018-06-12T07:31:59.847Z,1011.84
2018-06-12T07:32:59.878Z,1011.81
2018-06-12T07:33:59.904Z,1011.81
2018-06-12T07:34:59.932Z,1011.81
2018-06-12T07:35:59.957Z,1011.86
2018-06-12T07:36:59.983Z,1011.85
2018-06-12T07:38:00.016Z,1011.80
2018-06-12T07:39:00.041Z,1011.75
2018-06-12T07:40:00.071Z,1011.72
2018-06-12T07:41:00.097Z,1011.73
2018-06-12T07:42:00.125Z,1011.72
2018-06-12T07:43:00.149Z,1011.65
2018-06-12T07:44:00.173Z,1011.72
2018-06-12T07:45:00.203Z,1011.76
2018-06-12T07:46:00.227Z,1011.76
2018-06-12T07:47:00.258Z,1011.77
2018-06-12T07:48:00.296Z,1011.75
2018-06-12T07:49:00.313Z,1011.82
2018-06-12T07:50:00.343Z,1011.82
2018-06-12T07:51:00.370Z,1011.77
2018-06-12T07:52:00.392Z,1011.68
2018-06-12T07:53:00.423Z,1011.72
2018-06-12T07:54:00.450Z,1011.68
2018-06-12T07:55:00.495Z,1011.72
2018-06-12T07:56:00.503Z,1011.70
2018-06-12T07:57:00.533Z,1011.59
2018-06-12T07:58:00.558Z,1011.69
2018-06-12T07:59:00.590Z,1011.70
2018-06-12T08:00:00.620Z,1011.69
2018-06-12T08:01:00.708Z,1011.78
2018-06-12T08:02:00.673Z,1011.75
2018-06-12T08:03:00.695Z,1011.77
2018-06-12T08:04:00.723Z,1011.74
2018-06-12T08:05:00.753Z,1011.78
2018-06-12T08:06:00.780Z,1011.85
2018-06-12T08:07:00.813Z,1011.85
2018-06-12T08:08:00.830Z,1011.76
2018-06-12T08:09:00.860Z,1011.73
2018-06-12T08:10:00.885Z,1011.78
2018-06-12T08:11:00.918Z,1011.72
2018-06-12T08:12:00.938Z,1011.70
2018-06-12T08:13:01.018Z,1011.78
2018-06-12T08:14:00.995Z,1011.85
2018-06-12T08:15:01.023Z,1011.85
2018-06-12T08:16:01.051Z,1011.82
2018-06-12T08:17:01.081Z,1011.90
2018-06-12T08:18:01.103Z,1012.01
2018-06-12T08:19:01.140Z,1012.00
2018-06-12T08:20:01.158Z,1012.08
2018-06-12T08:21:01.187Z,1012.04
2018-06-12T08:22:01.213Z,1012.01
2018-06-12T08:23:01.247Z,1011.95
2018-06-12T08:24:01.278Z,1012.02
2018-06-12T08:25:01.295Z,1012.01
2018-06-12T08:26:01.334Z,1011.98
2018-06-12T08:27:01.347Z,1012.03
2018-06-12T08:28:01.375Z,1012.04
2018-06-12T08:29:01.413Z,1012.12
2018-06-12T08:30:01.589Z,1012.15
2018-06-12T08:31:01.461Z,1012.10
2018-06-12T08:32:01.490Z,1012.14
2018-06-12T08:33:01.516Z,1012.22
2018-06-12T08:34:01.545Z,1012.15
2018-06-12T08:35:01.573Z,1012.13
2018-06-12T08:36:01.596Z,1012.17
2018-06-12T08:37:01.623Z,1012.13
2018-06-12T08:38:01.648Z,1012.15
2018-06-12T08:39:01.682Z,1012.12
2018-06-12T08:40:01.715Z,1012.12
2018-06-12T08:41:01.737Z,1012.12
2018-06-12T08:42:01.765Z,1012.09
2018-06-12T08:43:01.791Z,1012.09
2018-06-12T08:44:01.821Z,1012.12
2018-06-12T08:45:01.842Z,1012.10
2018-06-12T08:46:01.873Z,1012.19
2018-06-12T08:47:01.899Z,1012.13
2018-06-12T08:48:01.924Z,1012.11
2018-06-12T08:49:01.953Z,1012.17
2018-06-12T08:50:01.978Z,1012.12
2018-06-12T08:51:02.010Z,1012.20
2018-06-12T08:52:02.032Z,1012.21
2018-06-12T08:53:02.057Z,1012.16
2018-06-12T08:54:02.094Z,1012.27
2018-06-12T08:55:02.128Z,1012.21
2018-06-12T08:56:02.144Z,1012.19
2018-06-12T08:57:02.174Z,1012.24
2018-06-12T08:58:02.197Z,1012.22
2018-06-12T08:59:02.227Z,1012.28
2018-06-12T09:00:02.251Z,1012.24
2018-06-12T09:01:02.282Z,1012.19
2018-06-12T09:02:02.316Z,1012.20
2018-06-12T09:03:02.337Z,1012.16
2018-06-12T09:04:02.362Z,1012.13
2018-06-12T09:05:02.390Z,1012.17
2018-06-12T09:06:02.422Z,1012.12
2018-06-12T09:07:02.447Z,1012.15
2018-06-12T09:08:02.471Z,1012.12
2018-06-12T09:09:02.497Z,1012.14
2018-06-12T09:10:02.552Z,1012.11
2018-06-12T09:11:02.561Z,1012.17
2018-06-12T09:12:02.592Z,1012.13
2018-06-12T09:13:02.614Z,1012.10
2018-06-12T09:14:02.635Z,1012.07
2018-06-12T09:15:02.667Z,1012.07
2018-06-12T09:16:02.696Z,1012.10
2018-06-12T09:17:02.719Z,1012.11
2018-06-12T09:18:02.747Z,1012.02
2018-06-12T09:19:02.770Z,1011.92
2018-06-12T09:20:02.801Z,1011.98
2018-06-12T09:21:02.840Z,1011.92
2018-06-12T09:22:02.857Z,1011.87
2018-06-12T09:23:02.885Z,1011.86
2018-06-12T09:24:02.910Z,1011.86
2018-06-12T09:25:02.946Z,1011.86
2018-06-12T09:26:02.965Z,1011.90
2018-06-12T09:27:02.994Z,1011.86
2018-06-12T09:28:03.020Z,1011.88
2018-06-12T09:29:03.047Z,1011.84
2018-06-12T09:30:03.085Z,1011.84
2018-06-12T09:31:03.102Z,1011.84
2018-06-12T09:32:03.126Z,1011.89
2018-06-12T09:33:03.153Z,1011.99
2018-06-12T09:34:03.179Z,1011.97
2018-06-12T09:35:03.209Z,1011.95
2018-06-12T09:36:03.236Z,1011.92
2018-06-12T09:37:03.272Z,1011.93
2018-06-12T09:38:03.289Z,1012.01
2018-06-12T09:39:03.320Z,1012.05
2018-06-12T09:40:03.339Z,1012.10
2018-06-12T09:41:03.373Z,1012.09
2018-06-12T09:42:03.414Z,1012.07
2018-06-12T09:43:03.433Z,1012.11
2018-06-12T09:44:03.462Z,1012.18
2018-06-12T09:45:03.482Z,1012.21
2018-06-12T09:46:03.513Z,1012.32
2018-06-12T09:47:03.535Z,1012.27
2018-06-12T09:48:03.566Z,1012.33
2018-06-12T09:49:03.638Z,1012.35
2018-06-12T09:50:03.618Z,1012.48
2018-06-12T09:51:03.640Z,1012.44
2018-06-12T09:52:03.673Z,1012.49
2018-06-12T09:53:03.703Z,1012.47
2018-06-12T09:54:03.723Z,1012.40
2018-06-12T09:55:03.753Z,1012.40
2018-06-12T09:56:03.779Z,1012.54
2018-06-12T09:57:03.811Z,1012.49
2018-06-12T09:58:03.836Z,1012.44
2018-06-12T09:59:03.859Z,1012.52
2018-06-12T10:00:03.894Z,1012.59
2018-06-12T10:01:03.914Z,1012.60
2018-06-12T10:02:03.952Z,1012.61
2018-06-12T10:03:03.977Z,1012.65
2018-06-12T10:04:04.004Z,1012.64
2018-06-12T10:05:04.036Z,1012.56
2018-06-12T10:06:04.063Z,1012.61
2018-06-12T10:07:04.092Z,1012.61
2018-06-12T10:08:04.118Z,1012.50
2018-06-12T10:09:04.143Z,1012.45
2018-06-12T10:10:04.171Z,1012.35
2018-06-12T10:11:04.203Z,1012.29
2018-06-12T10:12:04.226Z,1012.23
2018-06-12T10:13:04.253Z,1012.29
2018-06-12T10:14:04.281Z,1012.30
2018-06-12T10:15:04.309Z,1012.36
2018-06-12T10:16:04.333Z,1012.25
2018-06-12T10:17:04.368Z,1012.18
2018-06-12T10:18:04.394Z,1012.25
2018-06-12T10:19:04.422Z,1012.30
2018-06-12T10:20:04.450Z,1012.42
2018-06-12T10:21:04.480Z,1012.39
2018-06-12T10:22:04.508Z,1012.32
2018-06-12T10:23:04.533Z,1012.38
2018-06-12T10:24:04.557Z,1012.53
2018-06-12T10:25:04.613Z,1012.49
2018-06-12T10:26:04.618Z,1012.47
2018-06-12T10:27:04.649Z,1012.45
2018-06-12T10:28:04.685Z,1012.48
2018-06-12T10:29:04.701Z,1012.44
2018-06-12T10:30:04.732Z,1012.52
2018-06-12T10:31:04.757Z,1012.55
2018-06-12T10:32:04.788Z,1012.54
2018-06-12T10:33:04.809Z,1012.54
2018-06-12T10:34:04.842Z,1012.67
2018-06-12T10:35:04.868Z,1012.64
2018-06-12T10:36:04.892Z,1012.61
2018-06-12T10:37:04.959Z,1012.58
2018-06-12T10:38:04.947Z,1012.52
2018-06-12T10:39:04.981Z,1012.61
2018-06-12T10:40:05.011Z,1012.70
2018-06-12T10:41:05.030Z,1012.73
2018-06-12T10:42:05.062Z,1012.82
2018-06-12T10:43:05.089Z,1012.83
2018-06-12T10:44:05.112Z,1012.78
2018-06-12T10:45:05.141Z,1012.87
2018-06-12T10:46:05.172Z,1012.66
2018-06-12T10:47:05.197Z,1012.79
2018-06-12T10:48:05.238Z,1012.84
2018-06-12T10:49:05.251Z,1012.84
2018-06-12T10:50:05.354Z,1012.80
2018-06-12T10:51:05.310Z,1012.79
2018-06-12T10:52:05.341Z,1012.69
2018-06-12T10:53:05.362Z,1012.68
2018-06-12T10:54:05.397Z,1012.67
2018-06-12T10:55:05.429Z,1012.72
2018-06-12T10:56:05.450Z,1012.83
2018-06-12T10:57:05.479Z,1012.80
2018-06-12T10:58:05.509Z,1012.69
2018-06-12T10:59:05.539Z,1012.71
2018-06-12T11:00:05.566Z,1012.64
2018-06-12T11:01:05.600Z,1012.64
2018-06-12T11:02:05.628Z,1012.48
2018-06-12T11:03:05.655Z,1012.58
2018-06-12T11:04:05.681Z,1012.58
2018-06-12T11:05:05.710Z,1012.54
2018-06-12T11:06:05.743Z,1012.47
2018-06-12T11:07:05.775Z,1012.37
2018-06-12T11:08:05.798Z,1012.41
2018-06-12T11:09:05.832Z,1012.43
2018-06-12T11:10:05.858Z,1012.33
2018-06-12T11:11:05.885Z,1012.26
2018-06-12T11:12:05.913Z,1012.27
2018-06-12T11:13:05.946Z,1012.34
2018-06-12T11:14:05.973Z,1012.25
2018-06-12T11:15:06.000Z,1012.27
2018-06-12T11:16:06.025Z,1012.20
2018-06-12T11:17:06.055Z,1012.19
2018-06-12T11:18:06.084Z,1012.22
2018-06-12T11:19:06.116Z,1012.19
2018-06-12T11:20:06.140Z,1012.26
2018-06-12T11:21:06.171Z,1012.27
2018-06-12T11:22:06.199Z,1012.29
2018-06-12T11:23:06.230Z,1012.37
2018-06-12T11:24:06.255Z,1012.38
2018-06-12T11:25:06.286Z,1012.43
2018-06-12T11:26:06.322Z,1012.49
2018-06-12T11:27:06.348Z,1012.56
2018-06-12T11:28:06.370Z,1012.67
2018-06-12T11:29:06.405Z,1012.81
2018-06-12T11:30:06.434Z,1012.83
2018-06-12T11:31:06.459Z,1012.86
2018-06-12T11:32:06.488Z,1012.77
2018-06-12T11:33:06.531Z,1012.72
2018-06-12T11:34:06.549Z,1012.77
2018-06-12T11:35:06.569Z,1012.70
2018-06-12T11:36:06.596Z,1012.69
2018-06-12T11:37:06.627Z,1012.57
2018-06-12T11:38:06.656Z,1012.54
2018-06-12T11:39:06.685Z,1012.53
2018-06-12T11:40:06.713Z,1012.55
2018-06-12T11:41:06.773Z,1012.62
2018-06-12T11:42:06.770Z,1012.66
2018-06-12T11:43:06.803Z,1012.57
2018-06-12T11:44:06.827Z,1012.57
2018-06-12T11:45:06.868Z,1012.56
2018-06-12T11:46:06.886Z,1012.54
2018-06-12T11:47:06.915Z,1012.61
2018-06-12T11:48:06.938Z,1012.57
2018-06-12T11:49:06.968Z,1012.43
2018-06-12T11:50:07.004Z,1012.45
2018-06-12T11:51:07.030Z,1012.47
2018-06-12T11:52:07.058Z,1012.43
2018-06-12T11:53:07.085Z,1012.40
2018-06-12T11:54:07.111Z,1012.49
2018-06-12T11:55:07.138Z,1012.53
2018-06-12T11:56:07.169Z,1012.53
2018-06-12T11:57:07.199Z,1012.56
2018-06-12T11:58:07.225Z,1012.58
2018-06-12T11:59:07.262Z,1012.58
2018-06-12T12:00:07.284Z,1012.64
2018-06-12T12:01:07.350Z,1012.69
2018-06-12T12:02:07.345Z,1012.69
2018-06-12T12:03:07.372Z,1012.81
2018-06-12T12:04:07.400Z,1012.95
2018-06-12T12:05:07.434Z,1012.85
2018-06-12T12:06:07.453Z,1012.83